Time;durP1;ratioP1;P1;durP2;ratioP2;P2;SDS_P1;SDS_P2;PMS_P1;PMS_P2;Temp;Humidity;BMP_temperature;BMP_pressure;BME280_temperature;BME280_humidity;BME280_pressure;Samples;Min_cycle;Max_cycle;Signal;HPM_P1;HPM_P2
2022/11/13 00:02:12;;;;;;;18.83;16.20;;;;;;;;;;5016916;28;20180;-78
2022/11/13 00:04:38;;;;;;;18.63;14.43;;;;;;;;;;5017032;28;20224;-78
2022/11/13 00:07:04;;;;;;;18.30;14.80;;;;;;;;;;5000662;28;20191;-78
2022/11/13 00:09:30;;;;;;;17.33;14.60;;;;;;;;;;4999066;28;20192;-78
2022/11/13 00:11:56;;;;;;;18.77;14.77;;;;;;;;;;4981219;28;20185;-78
2022/11/13 00:14:22;;;;;;;18.23;15.40;;;;;;;;;;4994376;28;20261;-84
2022/11/13 00:16:48;;;;;;;17.97;15.23;;;;;;;;;;5000451;28;20247;-83
2022/11/13 00:19:14;;;;;;;16.17;14.10;;;;;;;;;;4998695;28;20197;-83
2022/11/13 00:21:40;;;;;;;17.20;15.37;;;;;;;;;;5031250;28;20228;-83
2022/11/13 00:24:06;;;;;;;20.93;15.13;;;;;;;;;;5000408;28;20189;-84
2022/11/13 00:26:32;;;;;;;16.63;14.50;;;;;;;;;;5016555;28;20198;-82
2022/11/13 00:29:00;;;;;;;16.73;14.73;;;;;;;;;;5000429;28;20280;-83
2022/11/13 00:31:26;;;;;;;16.07;14.17;;;;;;;;;;5016521;28;20215;-77
2022/11/13 00:33:52;;;;;;;17.47;14.60;;;;;;;;;;5032867;28;20230;-77
2022/11/13 00:36:22;;;;;;;16.07;13.67;;;;;;;;;;5032611;28;20215;-77
2022/11/13 00:38:49;;;;;;;17.80;14.50;;;;;;;;;;5016230;28;20218;-78
2022/11/13 00:41:15;;;;;;;18.10;15.03;;;;;;;;;;5016415;28;20195;-78
2022/11/13 00:43:41;;;;;;;17.07;14.20;;;;;;;;;;5016794;28;20177;-78
2022/11/13 00:46:07;;;;;;;18.47;15.67;;;;;;;;;;5033961;28;20179;-78
2022/11/13 00:48:33;;;;;;;16.73;14.60;;;;;;;;;;5015977;28;20192;-78
2022/11/13 00:51:00;;;;;;;16.40;14.63;;;;;;;;;;5035567;28;20193;-78
2022/11/13 00:53:26;;;;;;;17.93;14.77;;;;;;;;;;5007166;28;20193;-78
2022/11/13 00:55:52;;;;;;;16.97;14.67;;;;;;;;;;5035986;28;20192;-78
2022/11/13 00:58:18;;;;;;;16.10;14.40;;;;;;;;;;5007497;28;20193;-78
2022/11/13 01:00:45;;;;;;;17.07;15.27;;;;;;;;;;5019387;28;20173;-78
2022/11/13 01:03:11;;;;;;;16.27;14.57;;;;;;;;;;5037745;28;20184;-78
2022/11/13 01:05:42;;;;;;;19.47;15.47;;;;;;;;;;5019557;28;20211;-78
2022/11/13 01:08:08;;;;;;;16.07;14.40;;;;;;;;;;5037866;28;20180;-78
2022/11/13 01:10:37;;;;;;;19.20;15.67;;;;;;;;;;5037779;28;20172;-78
2022/11/13 01:13:03;;;;;;;17.50;15.70;;;;;;;;;;5037356;28;20283;-78
2022/11/13 01:15:29;;;;;;;18.63;15.40;;;;;;;;;;5003697;28;20209;-78
2022/11/13 01:17:55;;;;;;;18.00;15.53;;;;;;;;;;5003657;28;20212;-84
2022/11/13 01:20:22;;;;;;;17.07;15.10;;;;;;;;;;5036646;28;20251;-83
2022/11/13 01:22:49;;;;;;;17.23;14.47;;;;;;;;;;5019773;28;20216;-83
2022/11/13 01:25:15;;;;;;;16.00;14.27;;;;;;;;;;5037153;28;20272;-84
2022/11/13 01:27:41;;;;;;;16.80;14.93;;;;;;;;;;5019878;28;20189;-83
2022/11/13 01:30:07;;;;;;;17.30;15.50;;;;;;;;;;5019673;28;20191;-83
2022/11/13 01:32:33;;;;;;;16.60;14.70;;;;;;;;;;5019226;28;20274;-84
2022/11/13 01:34:59;;;;;;;16.30;14.50;;;;;;;;;;5019433;28;20192;-83
2022/11/13 01:37:25;;;;;;;16.53;14.80;;;;;;;;;;5019894;28;20223;-79
2022/11/13 01:39:51;;;;;;;17.43;14.40;;;;;;;;;;5002645;28;20342;-78
2022/11/13 01:42:17;;;;;;;15.60;14.10;;;;;;;;;;5002887;28;20195;-78
2022/11/13 01:44:46;;;;;;;16.23;14.53;;;;;;;;;;5019916;28;20189;-78
2022/11/13 01:47:12;;;;;;;18.73;15.80;;;;;;;;;;5036879;28;20193;-78
2022/11/13 01:49:40;;;;;;;17.43;15.70;;;;;;;;;;5003289;28;20256;-78
2022/11/13 01:52:09;;;;;;;18.60;15.33;;;;;;;;;;5036783;28;20253;-78
2022/11/13 01:54:38;;;;;;;17.80;15.63;;;;;;;;;;5036853;28;20184;-76
2022/11/13 01:57:05;;;;;;;17.77;15.80;;;;;;;;;;5019373;28;20212;-76
2022/11/13 01:59:35;;;;;;;17.03;15.23;;;;;;;;;;5002716;28;20268;-77
2022/11/13 02:02:01;;;;;;;17.70;15.90;;;;;;;;;;5035807;28;20220;-76
2022/11/13 02:04:28;;;;;;;16.37;14.57;;;;;;;;;;5004490;28;20192;-76
2022/11/13 02:06:56;;;;;;;17.13;15.40;;;;;;;;;;5035222;28;20203;-76
2022/11/13 02:09:24;;;;;;;16.83;14.80;;;;;;;;;;5018530;28;20180;-76
2022/11/13 02:11:51;;;;;;;16.17;14.50;;;;;;;;;;5018713;28;20184;-76
2022/11/13 02:14:17;;;;;;;16.63;14.83;;;;;;;;;;5018622;28;20185;-77
2022/11/13 02:16:45;;;;;;;16.70;14.90;;;;;;;;;;5018466;28;20208;-77
2022/11/13 02:19:19;;;;;;;15.97;14.33;;;;;;;;;;5018869;28;20188;-77
2022/11/13 02:21:50;;;;;;;15.53;13.93;;;;;;;;;;5018719;28;20296;-77
2022/11/13 02:24:25;;;;;;;16.70;14.53;;;;;;;;;;5035487;28;20208;-77
2022/11/13 02:26:51;;;;;;;15.53;13.93;;;;;;;;;;5018467;28;20196;-77
2022/11/13 02:29:17;;;;;;;15.30;13.57;;;;;;;;;;5026272;28;20185;-79
2022/11/13 02:31:43;;;;;;;16.87;13.87;;;;;;;;;;5001797;28;20199;-79
2022/11/13 02:36:38;;;;;;;18.13;14.90;;;;;;;;;;5080957;28;20253;-83
2022/11/13 02:39:05;;;;;;;15.80;14.20;;;;;;;;;;5047785;28;20261;-84
2022/11/13 02:41:32;;;;;;;16.30;14.60;;;;;;;;;;5065858;28;20184;-83
2022/11/13 02:43:57;;;;;;;14.83;13.27;;;;;;;;;;5041484;28;20188;-83
2022/11/13 02:46:23;;;;;;;17.27;14.30;;;;;;;;;;5060065;28;20191;-83
2022/11/13 02:48:49;;;;;;;16.80;13.50;;;;;;;;;;5049705;28;20170;-83
2022/11/13 02:51:15;;;;;;;17.37;14.80;;;;;;;;;;5062496;28;20191;-79
2022/11/13 02:53:41;;;;;;;17.53;14.57;;;;;;;;;;5058061;28;20203;-78
2022/11/13 02:56:08;;;;;;;15.23;13.57;;;;;;;;;;5041398;28;20207;-78
2022/11/13 02:58:34;;;;;;;15.37;13.77;;;;;;;;;;5075415;28;20249;-78
2022/11/13 03:01:03;;;;;;;15.70;13.97;;;;;;;;;;5045333;28;20191;-78
2022/11/13 03:03:29;;;;;;;15.63;13.93;;;;;;;;;;5049703;28;20191;-78
2022/11/13 03:05:56;;;;;;;15.57;14.00;;;;;;;;;;5034207;28;20210;-79
2022/11/13 03:08:24;;;;;;;15.67;14.07;;;;;;;;;;5079144;28;20223;-78
2022/11/13 03:10:50;;;;;;;16.40;14.47;;;;;;;;;;5054428;28;20179;-78
2022/11/13 03:13:16;;;;;;;17.37;15.20;;;;;;;;;;5064645;28;20242;-78
2022/11/13 03:15:42;;;;;;;17.23;15.43;;;;;;;;;;5038142;28;20187;-78
2022/11/13 03:18:10;;;;;;;17.27;14.77;;;;;;;;;;5028852;28;20190;-77
2022/11/13 03:20:37;;;;;;;17.70;15.00;;;;;;;;;;5067765;28;20193;-77
2022/11/13 03:23:03;;;;;;;16.13;14.53;;;;;;;;;;5060301;28;20211;-77
2022/11/13 03:25:29;;;;;;;16.83;15.00;;;;;;;;;;5057520;28;20179;-77
2022/11/13 03:27:55;;;;;;;17.47;15.43;;;;;;;;;;5041774;28;20194;-77
2022/11/13 03:30:22;;;;;;;16.33;14.67;;;;;;;;;;5027121;28;20184;-77
2022/11/13 03:32:48;;;;;;;18.20;15.93;;;;;;;;;;5061454;28;20266;-77
2022/11/13 03:35:14;;;;;;;17.07;15.27;;;;;;;;;;5071393;28;20269;-83
2022/11/13 03:37:40;;;;;;;18.30;15.90;;;;;;;;;;5066125;28;20206;-84
2022/11/13 03:40:06;;;;;;;16.60;15.00;;;;;;;;;;5076158;28;20171;-83
2022/11/13 03:42:33;;;;;;;17.50;15.67;;;;;;;;;;5056649;28;20189;-83
2022/11/13 03:44:59;;;;;;;16.50;14.77;;;;;;;;;;5037146;28;20188;-83
2022/11/13 03:47:25;;;;;;;16.50;14.87;;;;;;;;;;5055157;28;20271;-83
2022/11/13 03:49:51;;;;;;;16.50;14.63;;;;;;;;;;5054776;28;20230;-83
2022/11/13 03:52:17;;;;;;;18.73;15.10;;;;;;;;;;5027810;28;20248;-77
2022/11/13 03:54:43;;;;;;;17.53;15.63;;;;;;;;;;5064676;28;20188;-78
2022/11/13 03:57:09;;;;;;;16.93;15.03;;;;;;;;;;5068544;28;20207;-77
2022/11/13 03:59:35;;;;;;;16.83;15.23;;;;;;;;;;5040346;28;20187;-77
2022/11/13 04:02:01;;;;;;;16.63;14.87;;;;;;;;;;5044031;28;20187;-77
2022/11/13 04:04:27;;;;;;;17.70;15.90;;;;;;;;;;5055567;28;20263;-78
2022/11/13 04:06:53;;;;;;;15.97;14.47;;;;;;;;;;5080474;28;20191;-78
2022/11/13 04:09:18;;;;;;;15.97;14.37;;;;;;;;;;5056191;28;20190;-78
2022/11/13 04:11:44;;;;;;;17.17;15.10;;;;;;;;;;5068299;28;20195;-78
2022/11/13 04:14:11;;;;;;;18.00;15.33;;;;;;;;;;5056067;28;20201;-78
2022/11/13 04:16:37;;;;;;;16.77;15.07;;;;;;;;;;5055916;28;20298;-78
2022/11/13 04:19:03;;;;;;;17.67;15.60;;;;;;;;;;5055873;28;20218;-78
2022/11/13 04:21:29;;;;;;;17.03;15.33;;;;;;;;;;5039501;28;20187;-78
2022/11/13 04:23:55;;;;;;;17.00;15.20;;;;;;;;;;5036093;28;20245;-78
2022/11/13 04:26:21;;;;;;;17.07;15.27;;;;;;;;;;5044252;28;20194;-78
2022/11/13 04:28:47;;;;;;;17.03;14.93;;;;;;;;;;5085522;28;20190;-78
2022/11/13 04:31:13;;;;;;;17.27;15.47;;;;;;;;;;5076081;28;20187;-77
2022/11/13 04:33:39;;;;;;;16.97;15.17;;;;;;;;;;5065111;28;20227;-78
2022/11/13 04:36:05;;;;;;;16.23;14.53;;;;;;;;;;5055961;28;20237;-78
2022/11/13 04:38:31;;;;;;;16.53;14.83;;;;;;;;;;5058203;28;20179;-78
2022/11/13 04:43:41;;;;;;;16.77;15.07;;;;;;;;;;5061116;28;20333;-83
2022/11/13 04:46:07;;;;;;;16.07;14.37;;;;;;;;;;5039611;28;20273;-84
2022/11/13 04:48:33;;;;;;;16.57;14.87;;;;;;;;;;5055111;28;20191;-83
2022/11/13 04:50:59;;;;;;;16.83;15.23;;;;;;;;;;5072319;28;20187;-83
2022/11/13 04:53:25;;;;;;;16.97;15.23;;;;;;;;;;5062748;28;20263;-83
2022/11/13 04:55:52;;;;;;;16.87;15.07;;;;;;;;;;5072951;28;20191;-83
2022/11/13 04:58:19;;;;;;;19.15;17.35;;;;;;;;;;5085629;28;20517;-83
2022/11/13 05:00:45;;;;;;;16.87;15.10;;;;;;;;;;5074483;28;20175;-83
2022/11/13 05:03:11;;;;;;;16.30;14.50;;;;;;;;;;5043461;28;20191;-83
2022/11/13 05:05:36;;;;;;;16.60;14.87;;;;;;;;;;5026290;28;20226;-82
2022/11/13 05:08:03;;;;;;;16.17;14.57;;;;;;;;;;5083453;28;20205;-83
2022/11/13 05:10:29;;;;;;;17.37;14.97;;;;;;;;;;5039324;28;20206;-83
2022/11/13 05:12:58;;;;;;;18.23;14.93;;;;;;;;;;5055322;28;20196;-83
2022/11/13 05:15:24;;;;;;;16.20;14.57;;;;;;;;;;5058363;28;20191;-77
2022/11/13 05:17:50;;;;;;;16.07;14.33;;;;;;;;;;5036190;28;20284;-77
2022/11/13 05:20:16;;;;;;;16.27;13.97;;;;;;;;;;5071468;28;20188;-77
2022/11/13 05:22:42;;;;;;;15.83;14.33;;;;;;;;;;5038917;28;20191;-77
2022/11/13 05:25:08;;;;;;;16.20;14.50;;;;;;;;;;5038965;28;20262;-77
2022/11/13 05:27:34;;;;;;;15.70;14.10;;;;;;;;;;5054118;28;20183;-77
2022/11/13 05:30:00;;;;;;;17.23;14.50;;;;;;;;;;5037876;28;20189;-77
2022/11/13 05:32:26;;;;;;;15.73;14.13;;;;;;;;;;5055604;28;20187;-82
2022/11/13 05:34:52;;;;;;;15.37;13.83;;;;;;;;;;5055642;28;20231;-83
2022/11/13 05:37:18;;;;;;;16.37;14.13;;;;;;;;;;5075396;28;20272;-78
2022/11/13 05:39:44;;;;;;;16.17;14.57;;;;;;;;;;5042175;28;20210;-78
2022/11/13 05:42:10;;;;;;;16.90;14.33;;;;;;;;;;5043382;28;20180;-78
2022/11/13 05:44:36;;;;;;;16.00;14.40;;;;;;;;;;5057957;28;20233;-77
2022/11/13 05:47:02;;;;;;;16.37;14.60;;;;;;;;;;5048317;28;20188;-77
2022/11/13 05:49:28;;;;;;;16.97;14.57;;;;;;;;;;5037228;28;20266;-78
2022/11/13 05:51:54;;;;;;;16.20;14.57;;;;;;;;;;5041938;28;20179;-78
2022/11/13 05:54:20;;;;;;;19.67;14.00;;;;;;;;;;5034753;28;20225;-78
2022/11/13 05:56:46;;;;;;;16.80;14.67;;;;;;;;;;5038962;28;20251;-77
2022/11/13 05:59:12;;;;;;;15.83;14.23;;;;;;;;;;5039211;28;20242;-76
2022/11/13 06:01:39;;;;;;;16.27;14.17;;;;;;;;;;5039260;28;20198;-76
2022/11/13 06:04:06;;;;;;;17.47;14.80;;;;;;;;;;5056675;28;20176;-82
2022/11/13 06:06:33;;;;;;;15.93;14.33;;;;;;;;;;5069066;28;20195;-83
2022/11/13 06:08:59;;;;;;;16.03;14.33;;;;;;;;;;5040794;28;20264;-83
2022/11/13 06:11:27;;;;;;;16.50;14.90;;;;;;;;;;5066122;28;20199;-82
2022/11/13 06:13:54;;;;;;;16.37;14.67;;;;;;;;;;5056837;28;20198;-83
2022/11/13 06:16:21;;;;;;;16.90;15.20;;;;;;;;;;5044918;28;20207;-82
2022/11/13 06:18:48;;;;;;;16.47;14.80;;;;;;;;;;5058412;28;20233;-82
2022/11/13 06:21:16;;;;;;;16.00;14.30;;;;;;;;;;5048836;28;20231;-76
2022/11/13 06:23:42;;;;;;;16.07;14.33;;;;;;;;;;5038039;28;20184;-77
2022/11/13 06:26:09;;;;;;;16.43;14.80;;;;;;;;;;5039170;28;20187;-77
2022/11/13 06:28:36;;;;;;;17.00;15.20;;;;;;;;;;5052135;28;20270;-77
2022/11/13 06:31:06;;;;;;;16.60;14.90;;;;;;;;;;5038116;28;20184;-77
2022/11/13 06:33:33;;;;;;;15.83;14.30;;;;;;;;;;5067720;28;20186;-77
2022/11/13 06:36:04;;;;;;;17.50;15.70;;;;;;;;;;5038084;28;20267;-77
2022/11/13 06:38:34;;;;;;;15.80;14.23;;;;;;;;;;5076446;28;20182;-77
2022/11/13 06:41:00;;;;;;;17.63;14.90;;;;;;;;;;5096435;28;20257;-77
2022/11/13 06:43:26;;;;;;;16.33;14.73;;;;;;;;;;5054038;28;20237;-78
2022/11/13 06:45:52;;;;;;;16.57;14.87;;;;;;;;;;5022123;28;20184;-77
2022/11/13 06:48:18;;;;;;;17.40;15.03;;;;;;;;;;5073625;28;20187;-77
2022/11/13 06:50:44;;;;;;;19.90;17.80;;;;;;;;;;5057793;28;20217;-79
2022/11/13 06:53:10;;;;;;;19.00;17.00;;;;;;;;;;5058017;28;20202;-78
2022/11/13 06:55:41;;;;;;;18.83;16.83;;;;;;;;;;5054259;28;20187;-82
2022/11/13 06:58:07;;;;;;;18.73;16.47;;;;;;;;;;5040489;28;20211;-82
2022/11/13 07:00:33;;;;;;;16.77;15.17;;;;;;;;;;5025810;28;20207;-83
2022/11/13 07:02:59;;;;;;;17.60;15.17;;;;;;;;;;5040780;28;20179;-83
2022/11/13 07:05:25;;;;;;;17.47;15.53;;;;;;;;;;5037546;28;20180;-83
2022/11/13 07:07:51;;;;;;;17.87;15.30;;;;;;;;;;5037988;28;20194;-83
2022/11/13 07:10:17;;;;;;;17.20;15.20;;;;;;;;;;5037604;28;20184;-83
2022/11/13 07:12:43;;;;;;;17.43;15.63;;;;;;;;;;5073983;28;20183;-77
2022/11/13 07:15:10;;;;;;;17.43;15.67;;;;;;;;;;5075449;28;20266;-77
2022/11/13 07:17:36;;;;;;;17.17;14.67;;;;;;;;;;5066661;28;20212;-77
2022/11/13 07:20:02;;;;;;;18.43;15.13;;;;;;;;;;5058673;28;20283;-77
2022/11/13 07:22:29;;;;;;;16.77;15.07;;;;;;;;;;5078657;28;20214;-77
2022/11/13 07:24:55;;;;;;;18.83;15.70;;;;;;;;;;5061520;28;20250;-77
2022/11/13 07:27:22;;;;;;;16.40;14.63;;;;;;;;;;5060609;28;20195;-77
2022/11/13 07:29:48;;;;;;;16.77;14.90;;;;;;;;;;5076153;28;20258;-77
2022/11/13 07:32:14;;;;;;;17.40;15.60;;;;;;;;;;5074315;28;20272;-78
2022/11/13 07:34:40;;;;;;;17.70;15.90;;;;;;;;;;5063961;28;20182;-78
2022/11/13 07:37:06;;;;;;;17.07;15.27;;;;;;;;;;5062456;28;20211;-77
2022/11/13 07:39:32;;;;;;;16.57;14.77;;;;;;;;;;5072536;28;20182;-78
2022/11/13 07:41:58;;;;;;;16.97;14.97;;;;;;;;;;5069829;28;20189;-78
2022/11/13 07:44:24;;;;;;;15.90;14.30;;;;;;;;;;5060475;28;20191;-78
2022/11/13 07:46:50;;;;;;;16.57;14.87;;;;;;;;;;5038223;28;20184;-78
2022/11/13 07:49:16;;;;;;;15.43;13.93;;;;;;;;;;5048501;28;20194;-77
2022/11/13 07:51:42;;;;;;;15.83;14.23;;;;;;;;;;5061931;28;20174;-78
2022/11/13 07:54:08;;;;;;;16.73;14.37;;;;;;;;;;5046345;28;20251;-78
2022/11/13 07:56:34;;;;;;;17.07;14.40;;;;;;;;;;5040340;28;20211;-78
2022/11/13 07:59:00;;;;;;;16.03;14.17;;;;;;;;;;5057744;28;20180;-76
2022/11/13 08:01:26;;;;;;;15.90;14.30;;;;;;;;;;5048188;28;20183;-77
2022/11/13 08:03:52;;;;;;;16.13;14.43;;;;;;;;;;5053788;28;20186;-77
2022/11/13 08:06:18;;;;;;;15.67;14.07;;;;;;;;;;5042401;28;20182;-78
2022/11/13 08:08:46;;;;;;;16.02;14.38;;;;;;;;;;5041606;28;20391;-77
2022/11/13 08:11:12;;;;;;;17.55;15.75;;;;;;;;;;5056275;28;20425;-78
2022/11/13 08:13:38;;;;;;;17.08;15.45;;;;;;;;;;5038766;28;20418;-78
2022/11/13 08:16:04;;;;;;;16.52;14.93;;;;;;;;;;5055593;28;20476;-78
2022/11/13 08:18:31;;;;;;;15.35;13.95;;;;;;;;;;5056094;28;20402;-76
2022/11/13 08:20:57;;;;;;;14.70;13.30;;;;;;;;;;5038161;28;20422;-76
2022/11/13 08:23:23;;;;;;;14.10;12.73;;;;;;;;;;5055124;28;20429;-77
2022/11/13 08:25:49;;;;;;;14.00;12.70;;;;;;;;;;5049558;28;20403;-77
2022/11/13 08:28:15;;;;;;;13.52;12.32;;;;;;;;;;5042768;28;20426;-77
2022/11/13 08:30:42;;;;;;;12.30;11.20;;;;;;;;;;5053845;28;20237;-77
2022/11/13 08:33:09;;;;;;;12.33;11.13;;;;;;;;;;5056034;28;20214;-77
2022/11/13 08:35:35;;;;;;;12.43;11.27;;;;;;;;;;5055385;28;20318;-83
2022/11/13 08:38:10;;;;;;;11.90;10.70;;;;;;;;;;5033184;28;20199;-83
2022/11/13 08:40:36;;;;;;;11.60;10.50;;;;;;;;;;5058101;28;20167;-83
2022/11/13 08:43:03;;;;;;;12.13;10.60;;;;;;;;;;5049113;28;20187;-83
2022/11/13 08:45:29;;;;;;;10.83;9.73;;;;;;;;;;5073847;28;20250;-83
2022/11/13 08:48:02;;;;;;;11.03;9.90;;;;;;;;;;5050333;28;20179;-84
2022/11/13 08:50:28;;;;;;;11.13;9.27;;;;;;;;;;5070495;28;20190;-84
2022/11/13 08:52:57;;;;;;;10.53;9.40;;;;;;;;;;5065457;28;20186;-83
2022/11/13 08:55:24;;;;;;;9.87;8.97;;;;;;;;;;5060836;28;20182;-80
2022/11/13 08:57:50;;;;;;;10.03;9.10;;;;;;;;;;5055972;28;20202;-79
2022/11/13 09:00:16;;;;;;;9.20;8.40;;;;;;;;;;5052300;28;20234;-79
2022/11/13 09:02:42;;;;;;;9.67;8.77;;;;;;;;;;5036091;28;20176;-79
2022/11/13 09:05:09;;;;;;;9.53;8.63;;;;;;;;;;5054693;28;20180;-80
2022/11/13 09:07:35;;;;;;;9.87;8.97;;;;;;;;;;5036406;28;20182;-77
2022/11/13 09:10:01;;;;;;;9.90;8.67;;;;;;;;;;5053616;28;20263;-78
2022/11/13 09:12:27;;;;;;;9.98;9.02;;;;;;;;;;5057159;28;20459;-77
2022/11/13 09:14:53;;;;;;;9.60;8.70;;;;;;;;;;5076533;28;20414;-78
2022/11/13 09:17:19;;;;;;;10.13;9.15;;;;;;;;;;5076685;28;20445;-77
2022/11/13 09:19:45;;;;;;;10.40;9.40;;;;;;;;;;5059057;28;20413;-77
2022/11/13 09:22:11;;;;;;;10.10;9.20;;;;;;;;;;5042927;28;20455;-78
2022/11/13 09:24:37;;;;;;;10.30;9.30;;;;;;;;;;5038954;28;20419;-80
2022/11/13 09:27:03;;;;;;;10.03;9.07;;;;;;;;;;5039586;28;20183;-80
2022/11/13 09:29:29;;;;;;;9.73;8.93;;;;;;;;;;5023356;28;20186;-80
2022/11/13 09:31:55;;;;;;;10.03;8.97;;;;;;;;;;5039097;28;20184;-79
2022/11/13 09:34:21;;;;;;;10.03;9.13;;;;;;;;;;5039837;28;20191;-80
2022/11/13 09:36:47;;;;;;;10.00;9.00;;;;;;;;;;5039501;28;20231;-80
2022/11/13 09:39:13;;;;;;;9.50;8.60;;;;;;;;;;5022988;28;20171;-80
2022/11/13 09:41:49;;;;;;;10.13;8.73;;;;;;;;;;5039727;28;20204;-80
2022/11/13 09:44:15;;;;;;;392.63;35.97;;;;;;;;;;5053725;28;20187;-80
2022/11/13 09:46:47;;;;;;;59.83;13.20;;;;;;;;;;5059388;28;20175;-80
2022/11/13 09:49:18;;;;;;;24.67;10.98;;;;;;;;;;5056242;28;20458;-86
2022/11/13 09:51:50;;;;;;;10.90;9.80;;;;;;;;;;5056185;28;20470;-86
2022/11/13 09:54:17;;;;;;;12.30;9.80;;;;;;;;;;5039439;28;20171;-86
2022/11/13 09:56:46;;;;;;;10.48;9.50;;;;;;;;;;5038199;28;20428;-87
2022/11/13 09:59:26;;;;;;;10.65;9.70;;;;;;;;;;5068213;28;20431;-77
2022/11/13 10:01:52;;;;;;;10.23;9.33;;;;;;;;;;5059979;28;20186;-77
2022/11/13 10:04:23;;;;;;;9.23;8.43;;;;;;;;;;5059633;28;20179;-78
2022/11/13 10:06:55;;;;;;;9.03;8.23;;;;;;;;;;5058548;28;20190;-87
2022/11/13 10:09:24;;;;;;;10.00;9.07;;;;;;;;;;5058785;28;20203;-86
2022/11/13 10:11:54;;;;;;;9.40;8.43;;;;;;;;;;5058571;28;20183;-87
2022/11/13 10:14:26;;;;;;;21.23;10.10;;;;;;;;;;5058618;28;20183;-81
2022/11/13 10:16:55;;;;;;;36.90;10.10;;;;;;;;;;5058612;28;20270;-81
2022/11/13 10:19:50;;;;;;;11.10;8.70;;;;;;;;;;5051428;28;20180;-81
2022/11/13 10:22:26;;;;;;;21.23;9.07;;;;;;;;;;5037893;28;20194;-81
2022/11/13 10:24:53;;;;;;;9.77;8.87;;;;;;;;;;5076190;28;20167;-81
2022/11/13 10:27:20;;;;;;;9.50;8.60;;;;;;;;;;5058144;28;20326;-81
2022/11/13 10:29:46;;;;;;;9.17;8.30;;;;;;;;;;5057961;28;20198;-81
2022/11/13 10:32:26;;;;;;;19.20;9.87;;;;;;;;;;5057963;28;20187;-78
2022/11/13 10:35:01;;;;;;;10.27;8.37;;;;;;;;;;5058256;28;20254;-78
2022/11/13 10:37:31;;;;;;;11.60;8.50;;;;;;;;;;5057959;28;20312;-79
2022/11/13 10:39:57;;;;;;;9.70;8.70;;;;;;;;;;5055314;28;20275;-78
2022/11/13 10:42:26;;;;;;;18.33;8.37;;;;;;;;;;5038289;28;20255;-78
2022/11/13 10:44:54;;;;;;;19.40;8.77;;;;;;;;;;5055869;28;20183;-79
2022/11/13 10:47:22;;;;;;;35.03;9.93;;;;;;;;;;5069098;28;20271;-85
2022/11/13 10:49:48;;;;;;;17.07;8.60;;;;;;;;;;5058087;28;20172;-87
2022/11/13 10:52:24;;;;;;;11.33;8.17;;;;;;;;;;5041864;28;20190;-86
2022/11/13 10:54:51;;;;;;;8.93;8.23;;;;;;;;;;5058092;28;20186;-87
2022/11/13 10:57:20;;;;;;;9.07;8.27;;;;;;;;;;5040941;28;20207;-87
2022/11/13 10:59:46;;;;;;;9.40;8.50;;;;;;;;;;5058444;28;20179;-87
2022/11/13 11:02:23;;;;;;;8.73;7.97;;;;;;;;;;5058670;28;20179;-87
2022/11/13 11:04:49;;;;;;;8.70;7.90;;;;;;;;;;5058164;28;20229;-81
2022/11/13 11:07:17;;;;;;;8.77;8.07;;;;;;;;;;5058010;28;20198;-81
2022/11/13 11:09:45;;;;;;;8.80;7.90;;;;;;;;;;5057567;28;20254;-81
2022/11/13 11:12:17;;;;;;;9.40;8.60;;;;;;;;;;5075360;28;20217;-81
2022/11/13 11:14:46;;;;;;;9.87;8.87;;;;;;;;;;5057578;28;20175;-81
2022/11/13 11:17:13;;;;;;;14.03;8.50;;;;;;;;;;5057231;28;20214;-81
2022/11/13 11:19:40;;;;;;;9.97;8.97;;;;;;;;;;5058269;28;20179;-81
2022/11/13 11:22:09;;;;;;;18.23;8.90;;;;;;;;;;5057743;28;20225;-78
2022/11/13 11:24:38;;;;;;;10.00;8.63;;;;;;;;;;5057826;28;20187;-78
2022/11/13 11:27:24;;;;;;;9.67;8.67;;;;;;;;;;5075053;28;20171;-78
2022/11/13 11:29:53;;;;;;;20.77;9.50;;;;;;;;;;5056653;28;20194;-78
2022/11/13 11:32:29;;;;;;;36.50;11.32;;;;;;;;;;5074266;28;20410;-78
2022/11/13 11:34:59;;;;;;;26.70;10.18;;;;;;;;;;5055925;28;20422;-78
2022/11/13 11:37:32;;;;;;;23.40;10.68;;;;;;;;;;5056107;28;20440;-80
2022/11/13 11:40:21;;;;;;;17.53;9.70;;;;;;;;;;5056956;28;20171;-80
2022/11/13 11:42:50;;;;;;;10.70;9.70;;;;;;;;;;5056403;28;20413;-80
2022/11/13 11:45:23;;;;;;;10.40;9.50;;;;;;;;;;5056456;28;20399;-80
2022/11/13 11:47:49;;;;;;;9.37;8.50;;;;;;;;;;5056849;28;20175;-79
2022/11/13 11:50:16;;;;;;;10.50;9.40;;;;;;;;;;5056061;28;20434;-79
2022/11/13 11:52:51;;;;;;;10.30;9.40;;;;;;;;;;5055840;28;20398;-79
2022/11/13 11:55:36;;;;;;;10.40;9.40;;;;;;;;;;5056971;28;20329;-77
2022/11/13 11:58:13;;;;;;;10.73;9.73;;;;;;;;;;5055644;28;20441;-77
2022/11/13 12:00:42;;;;;;;156.15;17.67;;;;;;;;;;5055468;28;20429;-77
2022/11/13 12:03:20;;;;;;;331.20;26.00;;;;;;;;;;5056314;28;20262;-77
2022/11/13 12:05:46;;;;;;;12.53;9.13;;;;;;;;;;5043595;28;20180;-77
2022/11/13 12:08:15;;;;;;;15.00;9.80;;;;;;;;;;5048662;28;20198;-77
2022/11/13 12:10:47;;;;;;;9.80;8.93;;;;;;;;;;5074607;28;20179;-78
2022/11/13 12:13:26;;;;;;;9.17;8.37;;;;;;;;;;5077169;28;20208;-79
2022/11/13 12:15:57;;;;;;;10.20;9.18;;;;;;;;;;5076174;28;20417;-79
2022/11/13 12:18:29;;;;;;;10.48;9.50;;;;;;;;;;5058960;28;20487;-78
2022/11/13 12:21:01;;;;;;;10.07;9.18;;;;;;;;;;5073040;28;20397;-78
2022/11/13 12:23:46;;;;;;;10.27;9.27;;;;;;;;;;5040346;28;20493;-78
2022/11/13 12:26:17;;;;;;;10.03;9.10;;;;;;;;;;5052606;28;20415;-78
2022/11/13 12:28:53;;;;;;;9.70;8.80;;;;;;;;;;5054072;28;20258;-77
2022/11/13 12:31:22;;;;;;;9.25;8.40;;;;;;;;;;5053806;28;20475;-77
2022/11/13 12:33:57;;;;;;;9.07;8.20;;;;;;;;;;5053008;28;20168;-77
2022/11/13 12:36:24;;;;;;;9.23;8.32;;;;;;;;;;5052518;28;20440;-77
2022/11/13 12:38:55;;;;;;;9.65;8.65;;;;;;;;;;5050539;28;20446;-77
2022/11/13 12:41:28;;;;;;;9.02;8.13;;;;;;;;;;5055282;28;20467;-80
2022/11/13 12:44:27;;;;;;;8.53;7.80;;;;;;;;;;5056106;28;20258;-80
2022/11/13 12:46:55;;;;;;;9.60;8.60;;;;;;;;;;5031366;28;20215;-87
2022/11/13 12:49:34;;;;;;;11.53;10.33;;;;;;;;;;5044270;28;20175;-79
2022/11/13 12:52:00;;;;;;;10.30;9.33;;;;;;;;;;5057680;28;20196;-79
2022/11/13 12:54:26;;;;;;;9.38;7.60;;;;;;;;;;5057962;28;20419;-79
2022/11/13 12:56:52;;;;;;;8.48;7.65;;;;;;;;;;5042186;28;20436;-79
2022/11/13 12:59:19;;;;;;;9.13;8.25;;;;;;;;;;5055629;28;20414;-79
2022/11/13 13:01:55;;;;;;;10.20;9.20;;;;;;;;;;5050827;28;20420;-77
2022/11/13 13:04:33;;;;;;;8.07;7.30;;;;;;;;;;5056452;28;20187;-77
2022/11/13 13:07:18;;;;;;;8.55;7.40;;;;;;;;;;5057987;28;20449;-77
2022/11/13 13:10:04;;;;;;;7.13;6.40;;;;;;;;;;5053025;28;20180;-77
2022/11/13 13:12:44;;;;;;;8.03;7.23;;;;;;;;;;5058179;28;20568;-77
2022/11/13 13:15:29;;;;;;;7.75;7.05;;;;;;;;;;5056072;28;20415;-77
2022/11/13 13:18:24;;;;;;;7.70;6.90;;;;;;;;;;5053972;28;20432;-88
2022/11/13 13:20:56;;;;;;;7.13;6.43;;;;;;;;;;5039671;28;20191;-87
2022/11/13 13:23:30;;;;;;;6.77;6.17;;;;;;;;;;5063728;28;20180;-87
2022/11/13 13:26:15;;;;;;;7.10;6.17;;;;;;;;;;5046870;28;20176;-87
2022/11/13 13:28:42;;;;;;;6.95;6.35;;;;;;;;;;5045465;28;20476;-87
2022/11/13 13:31:20;;;;;;;7.03;6.32;;;;;;;;;;5059626;28;20471;-87
2022/11/13 13:33:51;;;;;;;7.32;6.72;;;;;;;;;;5073005;28;20412;-87
2022/11/13 13:36:22;;;;;;;7.03;6.32;;;;;;;;;;5049660;28;20447;-87
2022/11/13 13:39:17;;;;;;;6.97;6.30;;;;;;;;;;5062446;28;20462;-88
2022/11/13 13:41:52;;;;;;;6.35;5.75;;;;;;;;;;5071224;28;20418;-87
2022/11/13 13:44:25;;;;;;;6.65;5.95;;;;;;;;;;5058409;28;20404;-87
2022/11/13 13:46:51;;;;;;;6.67;5.53;;;;;;;;;;5046750;28;20295;-87
2022/11/13 13:49:20;;;;;;;5.75;5.25;;;;;;;;;;5067849;28;20495;-88
2022/11/13 13:51:47;;;;;;;6.00;5.40;;;;;;;;;;5076183;28;20479;-77
2022/11/13 13:54:17;;;;;;;6.07;5.57;;;;;;;;;;5058344;28;20445;-77
2022/11/13 13:56:43;;;;;;;6.15;5.55;;;;;;;;;;5055697;28;20525;-77
2022/11/13 13:59:20;;;;;;;6.63;5.93;;;;;;;;;;5037843;28;20478;-77
2022/11/13 14:01:57;;;;;;;6.10;5.60;;;;;;;;;;5066054;28;20506;-78
2022/11/13 14:04:23;;;;;;;6.07;5.47;;;;;;;;;;5038145;28;20486;-78
2022/11/13 14:06:51;;;;;;;5.60;5.10;;;;;;;;;;5057784;28;20426;-78
2022/11/13 14:09:24;;;;;;;5.97;5.38;;;;;;;;;;5052144;28;20427;-80
2022/11/13 14:12:00;;;;;;;6.97;5.40;;;;;;;;;;5038187;28;20476;-79
2022/11/13 14:14:26;;;;;;;6.22;5.63;;;;;;;;;;5038805;28;20408;-78
2022/11/13 14:16:53;;;;;;;6.10;5.50;;;;;;;;;;5051994;28;20439;-78
2022/11/13 14:19:20;;;;;;;6.00;5.45;;;;;;;;;;5061109;28;20422;-78
2022/11/13 14:21:47;;;;;;;6.47;5.43;;;;;;;;;;5039547;28;20430;-78
2022/11/13 14:24:20;;;;;;;6.00;5.40;;;;;;;;;;5075928;28;20189;-80
2022/11/13 14:26:47;;;;;;;6.00;5.45;;;;;;;;;;5044468;28;20476;-81
2022/11/13 14:29:21;;;;;;;6.30;5.37;;;;;;;;;;5058793;28;20187;-80
2022/11/13 14:31:48;;;;;;;6.57;5.70;;;;;;;;;;5050152;28;20191;-80
2022/11/13 14:34:17;;;;;;;6.38;5.70;;;;;;;;;;5067341;28;20434;-86
2022/11/13 14:36:43;;;;;;;7.60;5.82;;;;;;;;;;5057163;28;20541;-86